sensor_id;sensor_type;location;lat;lon;timestamp;pressure;altitude;pressure_sealevel;temperature
20736;BMP180;10528;52.124;5.196;2022-08-03T00:01:29;101459.00;;;27.80
20736;BMP180;10528;52.124;5.196;2022-08-03T00:03:55;101451.00;;;27.80
20736;BMP180;10528;52.124;5.196;2022-08-03T00:06:22;101457.00;;;27.80
20736;BMP180;10528;52.124;5.196;2022-08-03T00:08:49;101453.00;;;27.80
20736;BMP180;10528;52.124;5.196;2022-08-03T00:11:16;101456.00;;;27.80
20736;BMP180;10528;52.124;5.196;2022-08-03T00:13:43;101457.00;;;27.80
20736;BMP180;10528;52.124;5.196;2022-08-03T00:16:10;101465.00;;;27.70
20736;BMP180;10528;52.124;5.196;2022-08-03T00:18:39;101454.00;;;27.70
20736;BMP180;10528;52.124;5.196;2022-08-03T00:21:06;101453.00;;;27.70
20736;BMP180;10528;52.124;5.196;2022-08-03T00:23:33;101454.00;;;27.70
20736;BMP180;10528;52.124;5.196;2022-08-03T00:26:19;101458.00;;;27.60
20736;BMP180;10528;52.124;5.196;2022-08-03T00:28:47;101458.00;;;27.60
20736;BMP180;10528;52.124;5.196;2022-08-03T00:31:14;101455.00;;;27.60
20736;BMP180;10528;52.124;5.196;2022-08-03T00:33:41;101454.00;;;27.60
20736;BMP180;10528;52.124;5.196;2022-08-03T00:36:26;101455.00;;;27.50
20736;BMP180;10528;52.124;5.196;2022-08-03T00:38:54;101454.00;;;27.50
20736;BMP180;10528;52.124;5.196;2022-08-03T00:41:21;101461.00;;;27.50
20736;BMP180;10528;52.124;5.196;2022-08-03T00:43:48;101453.00;;;27.50
20736;BMP180;10528;52.124;5.196;2022-08-03T00:46:15;101447.00;;;27.50
20736;BMP180;10528;52.124;5.196;2022-08-03T00:48:49;101448.00;;;27.40
20736;BMP180;10528;52.124;5.196;2022-08-03T00:51:18;101433.00;;;27.40
20736;BMP180;10528;52.124;5.196;2022-08-03T00:53:46;101433.00;;;27.40
20736;BMP180;10528;52.124;5.196;2022-08-03T00:56:15;101445.00;;;27.40
20736;BMP180;10528;52.124;5.196;2022-08-03T00:58:45;101438.00;;;27.30
20736;BMP180;10528;52.124;5.196;2022-08-03T01:01:13;101442.00;;;27.30
20736;BMP180;10528;52.124;5.196;2022-08-03T01:03:40;101430.00;;;27.30
20736;BMP180;10528;52.124;5.196;2022-08-03T01:06:21;101441.00;;;27.30
20736;BMP180;10528;52.124;5.196;2022-08-03T01:09:01;101436.00;;;27.20
20736;BMP180;10528;52.124;5.196;2022-08-03T01:11:46;101438.00;;;27.20
20736;BMP180;10528;52.124;5.196;2022-08-03T01:14:59;101440.00;;;27.20
20736;BMP180;10528;52.124;5.196;2022-08-03T01:17:43;101434.00;;;27.10
20736;BMP180;10528;52.124;5.196;2022-08-03T01:20:15;101435.00;;;27.10
20736;BMP180;10528;52.124;5.196;2022-08-03T01:23:05;101430.00;;;27.10
20736;BMP180;10528;52.124;5.196;2022-08-03T01:31:35;101428.00;;;27.00
20736;BMP180;10528;52.124;5.196;2022-08-03T01:34:33;101422.00;;;27.00
20736;BMP180;10528;52.124;5.196;2022-08-03T01:37:05;101426.00;;;27.00
20736;BMP180;10528;52.124;5.196;2022-08-03T01:39:35;101432.00;;;27.00
20736;BMP180;10528;52.124;5.196;2022-08-03T01:42:06;101420.00;;;27.00
20736;BMP180;10528;52.124;5.196;2022-08-03T01:44:39;101428.00;;;27.00
20736;BMP180;10528;52.124;5.196;2022-08-03T01:47:07;101426.00;;;27.00
20736;BMP180;10528;52.124;5.196;2022-08-03T01:49:43;101420.00;;;26.90
20736;BMP180;10528;52.124;5.196;2022-08-03T01:52:13;101424.00;;;26.90
20736;BMP180;10528;52.124;5.196;2022-08-03T01:54:48;101419.00;;;26.90
20736;BMP180;10528;52.124;5.196;2022-08-03T01:57:18;101420.00;;;26.90
20736;BMP180;10528;52.124;5.196;2022-08-03T01:59:48;101417.00;;;26.90
20736;BMP180;10528;52.124;5.196;2022-08-03T02:02:16;101415.00;;;26.90
20736;BMP180;10528;52.124;5.196;2022-08-03T02:05:03;101420.00;;;26.80
20736;BMP180;10528;52.124;5.196;2022-08-03T02:07:32;101411.00;;;26.80
20736;BMP180;10528;52.124;5.196;2022-08-03T02:10:03;101415.00;;;26.80
20736;BMP180;10528;52.124;5.196;2022-08-03T02:12:32;101414.00;;;26.80
20736;BMP180;10528;52.124;5.196;2022-08-03T02:15:01;101414.00;;;26.80
20736;BMP180;10528;52.124;5.196;2022-08-03T02:17:29;101408.00;;;26.80
20736;BMP180;10528;52.124;5.196;2022-08-03T02:20:08;101403.00;;;26.70
20736;BMP180;10528;52.124;5.196;2022-08-03T02:22:40;101406.00;;;26.70
20736;BMP180;10528;52.124;5.196;2022-08-03T02:25:11;101407.00;;;26.70
20736;BMP180;10528;52.124;5.196;2022-08-03T02:27:49;101402.00;;;26.70
20736;BMP180;10528;52.124;5.196;2022-08-03T02:30:18;101400.00;;;26.70
20736;BMP180;10528;52.124;5.196;2022-08-03T02:32:54;101400.00;;;26.70
20736;BMP180;10528;52.124;5.196;2022-08-03T02:35:25;101405.00;;;26.60
20736;BMP180;10528;52.124;5.196;2022-08-03T02:38:00;101401.00;;;26.60
20736;BMP180;10528;52.124;5.196;2022-08-03T02:40:30;101393.00;;;26.60
20736;BMP180;10528;52.124;5.196;2022-08-03T02:43:02;101397.00;;;26.60
20736;BMP180;10528;52.124;5.196;2022-08-03T02:45:34;101384.00;;;26.60
20736;BMP180;10528;52.124;5.196;2022-08-03T02:48:04;101381.00;;;26.60
20736;BMP180;10528;52.124;5.196;2022-08-03T02:50:34;101384.00;;;26.60
20736;BMP180;10528;52.124;5.196;2022-08-03T02:53:02;101389.00;;;26.60
20736;BMP180;10528;52.124;5.196;2022-08-03T02:55:33;101391.00;;;26.60
20736;BMP180;10528;52.124;5.196;2022-08-03T02:58:10;101389.00;;;26.60
20736;BMP180;10528;52.124;5.196;2022-08-03T03:00:40;101389.00;;;26.50
20736;BMP180;10528;52.124;5.196;2022-08-03T03:03:10;101388.00;;;26.50
20736;BMP180;10528;52.124;5.196;2022-08-03T03:05:40;101379.00;;;26.50
20736;BMP180;10528;52.124;5.196;2022-08-03T03:08:25;101379.00;;;26.50
20736;BMP180;10528;52.124;5.196;2022-08-03T03:10:58;101380.00;;;26.50
20736;BMP180;10528;52.124;5.196;2022-08-03T03:13:31;101376.00;;;26.50
20736;BMP180;10528;52.124;5.196;2022-08-03T03:16:01;101374.00;;;26.50
20736;BMP180;10528;52.124;5.196;2022-08-03T03:18:32;101378.00;;;26.50
20736;BMP180;10528;52.124;5.196;2022-08-03T03:21:02;101375.00;;;26.40
20736;BMP180;10528;52.124;5.196;2022-08-03T03:23:30;101377.00;;;26.40
20736;BMP180;10528;52.124;5.196;2022-08-03T03:26:00;101376.00;;;26.40
20736;BMP180;10528;52.124;5.196;2022-08-03T03:28:29;101383.00;;;26.40
20736;BMP180;10528;52.124;5.196;2022-08-03T03:30:57;101374.00;;;26.40
20736;BMP180;10528;52.124;5.196;2022-08-03T03:33:25;101383.00;;;26.40
20736;BMP180;10528;52.124;5.196;2022-08-03T03:35:54;101380.00;;;26.40
20736;BMP180;10528;52.124;5.196;2022-08-03T03:38:23;101373.00;;;26.30
20736;BMP180;10528;52.124;5.196;2022-08-03T03:40:50;101385.00;;;26.30
20736;BMP180;10528;52.124;5.196;2022-08-03T03:43:17;101383.00;;;26.30
20736;BMP180;10528;52.124;5.196;2022-08-03T03:45:45;101390.00;;;26.30
20736;BMP180;10528;52.124;5.196;2022-08-03T03:48:13;101384.00;;;26.30
20736;BMP180;10528;52.124;5.196;2022-08-03T03:50:42;101371.00;;;26.20
20736;BMP180;10528;52.124;5.196;2022-08-03T03:53:12;101373.00;;;26.20
20736;BMP180;10528;52.124;5.196;2022-08-03T03:55:40;101380.00;;;26.20
20736;BMP180;10528;52.124;5.196;2022-08-03T03:58:28;101379.00;;;26.20
20736;BMP180;10528;52.124;5.196;2022-08-03T04:00:55;101375.00;;;26.10
20736;BMP180;10528;52.124;5.196;2022-08-03T04:03:22;101374.00;;;26.10
20736;BMP180;10528;52.124;5.196;2022-08-03T04:05:49;101380.00;;;26.10
20736;BMP180;10528;52.124;5.196;2022-08-03T04:08:35;101374.00;;;26.10
20736;BMP180;10528;52.124;5.196;2022-08-03T04:11:26;101377.00;;;26.10
20736;BMP180;10528;52.124;5.196;2022-08-03T04:14:31;101383.00;;;26.00
20736;BMP180;10528;52.124;5.196;2022-08-03T04:17:03;101376.00;;;26.00
20736;BMP180;10528;52.124;5.196;2022-08-03T04:19:44;101381.00;;;26.00
20736;BMP180;10528;52.124;5.196;2022-08-03T04:22:18;101380.00;;;26.00
20736;BMP180;10528;52.124;5.196;2022-08-03T04:24:55;101389.00;;;26.00
20736;BMP180;10528;52.124;5.196;2022-08-03T04:27:28;101391.00;;;26.00
20736;BMP180;10528;52.124;5.196;2022-08-03T04:29:58;101382.00;;;26.00
20736;BMP180;10528;52.124;5.196;2022-08-03T04:32:29;101373.00;;;26.00
20736;BMP180;10528;52.124;5.196;2022-08-03T04:34:57;101385.00;;;26.10
20736;BMP180;10528;52.124;5.196;2022-08-03T04:37:40;101386.00;;;26.10
20736;BMP180;10528;52.124;5.196;2022-08-03T04:40:14;101382.00;;;26.10
20736;BMP180;10528;52.124;5.196;2022-08-03T04:42:49;101390.00;;;26.10
20736;BMP180;10528;52.124;5.196;2022-08-03T04:45:18;101387.00;;;26.10
20736;BMP180;10528;52.124;5.196;2022-08-03T04:47:45;101386.00;;;26.10
20736;BMP180;10528;52.124;5.196;2022-08-03T04:50:13;101380.00;;;26.20
20736;BMP180;10528;52.124;5.196;2022-08-03T04:53:04;101393.00;;;26.20
20736;BMP180;10528;52.124;5.196;2022-08-03T04:55:34;101386.00;;;26.20
20736;BMP180;10528;52.124;5.196;2022-08-03T04:58:02;101398.00;;;26.20
20736;BMP180;10528;52.124;5.196;2022-08-03T05:00:29;101404.00;;;26.30
20736;BMP180;10528;52.124;5.196;2022-08-03T05:02:56;101403.00;;;26.30
20736;BMP180;10528;52.124;5.196;2022-08-03T05:05:23;101410.00;;;26.30
20736;BMP180;10528;52.124;5.196;2022-08-03T05:07:50;101398.00;;;26.30
20736;BMP180;10528;52.124;5.196;2022-08-03T05:10:18;101410.00;;;26.30
20736;BMP180;10528;52.124;5.196;2022-08-03T05:12:47;101408.00;;;26.30
20736;BMP180;10528;52.124;5.196;2022-08-03T05:15:14;101414.00;;;26.40
20736;BMP180;10528;52.124;5.196;2022-08-03T05:17:42;101415.00;;;26.40
20736;BMP180;10528;52.124;5.196;2022-08-03T05:20:10;101414.00;;;26.40
20736;BMP180;10528;52.124;5.196;2022-08-03T05:22:37;101416.00;;;26.40
20736;BMP180;10528;52.124;5.196;2022-08-03T05:25:04;101420.00;;;26.40
20736;BMP180;10528;52.124;5.196;2022-08-03T05:27:31;101413.00;;;26.40
20736;BMP180;10528;52.124;5.196;2022-08-03T05:29:58;101415.00;;;26.50
20736;BMP180;10528;52.124;5.196;2022-08-03T05:32:45;101421.00;;;26.50
20736;BMP180;10528;52.124;5.196;2022-08-03T05:35:12;101412.00;;;26.50
20736;BMP180;10528;52.124;5.196;2022-08-03T05:37:58;101422.00;;;26.50
20736;BMP180;10528;52.124;5.196;2022-08-03T05:40:25;101422.00;;;26.50
20736;BMP180;10528;52.124;5.196;2022-08-03T05:42:52;101425.00;;;26.60
20736;BMP180;10528;52.124;5.196;2022-08-03T05:45:19;101430.00;;;26.60
20736;BMP180;10528;52.124;5.196;2022-08-03T05:47:52;101431.00;;;26.60
20736;BMP180;10528;52.124;5.196;2022-08-03T05:50:20;101423.00;;;26.70
20736;BMP180;10528;52.124;5.196;2022-08-03T05:52:47;101424.00;;;26.70
20736;BMP180;10528;52.124;5.196;2022-08-03T05:55:15;101417.00;;;27.00
20736;BMP180;10528;52.124;5.196;2022-08-03T05:57:44;101425.00;;;27.50
20736;BMP180;10528;52.124;5.196;2022-08-03T06:00:12;101421.00;;;28.10
20736;BMP180;10528;52.124;5.196;2022-08-03T06:02:41;101423.00;;;28.50
20736;BMP180;10528;52.124;5.196;2022-08-03T06:05:09;101425.00;;;29.10
20736;BMP180;10528;52.124;5.196;2022-08-03T06:07:36;101418.00;;;29.60
20736;BMP180;10528;52.124;5.196;2022-08-03T06:10:04;101422.00;;;30.10
20736;BMP180;10528;52.124;5.196;2022-08-03T06:12:51;101428.00;;;30.70
20736;BMP180;10528;52.124;5.196;2022-08-03T06:15:19;101431.00;;;31.20
20736;BMP180;10528;52.124;5.196;2022-08-03T06:17:50;101427.00;;;31.50
20736;BMP180;10528;52.124;5.196;2022-08-03T06:20:19;101437.00;;;31.60
20736;BMP180;10528;52.124;5.196;2022-08-03T06:22:48;101428.00;;;31.90
20736;BMP180;10528;52.124;5.196;2022-08-03T06:25:17;101435.00;;;32.30
20736;BMP180;10528;52.124;5.196;2022-08-03T06:27:47;101438.00;;;32.80
20736;BMP180;10528;52.124;5.196;2022-08-03T06:30:14;101429.00;;;33.00
20736;BMP180;10528;52.124;5.196;2022-08-03T06:32:47;101429.00;;;33.30
20736;BMP180;10528;52.124;5.196;2022-08-03T06:35:18;101435.00;;;33.80
20736;BMP180;10528;52.124;5.196;2022-08-03T06:37:49;101431.00;;;34.10
20736;BMP180;10528;52.124;5.196;2022-08-03T06:40:20;101432.00;;;34.30
20736;BMP180;10528;52.124;5.196;2022-08-03T06:42:56;101424.00;;;34.40
20736;BMP180;10528;52.124;5.196;2022-08-03T06:45:23;101432.00;;;34.40
20736;BMP180;10528;52.124;5.196;2022-08-03T06:48:11;101430.00;;;34.60
20736;BMP180;10528;52.124;5.196;2022-08-03T06:50:40;101431.00;;;34.40
20736;BMP180;10528;52.124;5.196;2022-08-03T06:53:08;101449.00;;;34.50
20736;BMP180;10528;52.124;5.196;2022-08-03T06:55:45;101440.00;;;34.30
20736;BMP180;10528;52.124;5.196;2022-08-03T06:58:15;101451.00;;;34.30
20736;BMP180;10528;52.124;5.196;2022-08-03T07:00:42;101444.00;;;34.30
20736;BMP180;10528;52.124;5.196;2022-08-03T07:03:09;101449.00;;;34.10
20736;BMP180;10528;52.124;5.196;2022-08-03T07:05:36;101446.00;;;33.80
20736;BMP180;10528;52.124;5.196;2022-08-03T07:08:03;101442.00;;;33.70
20736;BMP180;10528;52.124;5.196;2022-08-03T07:10:30;101455.00;;;33.90
20736;BMP180;10528;52.124;5.196;2022-08-03T07:12:57;101449.00;;;34.00
20736;BMP180;10528;52.124;5.196;2022-08-03T07:15:24;101456.00;;;34.10
20736;BMP180;10528;52.124;5.196;2022-08-03T07:18:11;101457.00;;;34.20
20736;BMP180;10528;52.124;5.196;2022-08-03T07:20:38;101458.00;;;34.30
20736;BMP180;10528;52.124;5.196;2022-08-03T07:23:06;101469.00;;;34.10
20736;BMP180;10528;52.124;5.196;2022-08-03T07:25:32;101470.00;;;34.50
20736;BMP180;10528;52.124;5.196;2022-08-03T07:27:59;101466.00;;;34.50
20736;BMP180;10528;52.124;5.196;2022-08-03T07:30:26;101474.00;;;34.40
20736;BMP180;10528;52.124;5.196;2022-08-03T07:32:53;101480.00;;;34.20
20736;BMP180;10528;52.124;5.196;2022-08-03T07:35:20;101465.00;;;33.80
20736;BMP180;10528;52.124;5.196;2022-08-03T07:37:52;101469.00;;;33.60
20736;BMP180;10528;52.124;5.196;2022-08-03T07:40:21;101465.00;;;33.40
20736;BMP180;10528;52.124;5.196;2022-08-03T07:42:48;101473.00;;;33.20
20736;BMP180;10528;52.124;5.196;2022-08-03T07:45:19;101464.00;;;33.10
20736;BMP180;10528;52.124;5.196;2022-08-03T07:47:49;101461.00;;;32.90
20736;BMP180;10528;52.124;5.196;2022-08-03T07:50:20;101476.00;;;32.90
20736;BMP180;10528;52.124;5.196;2022-08-03T07:52:49;101471.00;;;33.10
20736;BMP180;10528;52.124;5.196;2022-08-03T07:55:21;101464.00;;;33.20
20736;BMP180;10528;52.124;5.196;2022-08-03T07:58:08;101475.00;;;33.40
20736;BMP180;10528;52.124;5.196;2022-08-03T08:00:38;101476.00;;;33.70
20736;BMP180;10528;52.124;5.196;2022-08-03T08:03:05;101481.00;;;33.90
20736;BMP180;10528;52.124;5.196;2022-08-03T08:05:32;101477.00;;;34.20
20736;BMP180;10528;52.124;5.196;2022-08-03T08:08:03;101483.00;;;34.40
20736;BMP180;10528;52.124;5.196;2022-08-03T08:10:30;101478.00;;;34.40
20736;BMP180;10528;52.124;5.196;2022-08-03T08:12:58;101477.00;;;34.50
20736;BMP180;10528;52.124;5.196;2022-08-03T08:15:25;101482.00;;;34.20
20736;BMP180;10528;52.124;5.196;2022-08-03T08:17:55;101473.00;;;34.20
20736;BMP180;10528;52.124;5.196;2022-08-03T08:20:26;101482.00;;;34.10
20736;BMP180;10528;52.124;5.196;2022-08-03T08:23:01;101484.00;;;34.00
20736;BMP180;10528;52.124;5.196;2022-08-03T08:25:30;101488.00;;;34.30
20736;BMP180;10528;52.124;5.196;2022-08-03T08:27:59;101488.00;;;34.50
20736;BMP180;10528;52.124;5.196;2022-08-03T08:30:50;101485.00;;;34.40
20736;BMP180;10528;52.124;5.196;2022-08-03T08:33:17;101493.00;;;34.50
20736;BMP180;10528;52.124;5.196;2022-08-03T08:35:51;101487.00;;;34.60
20736;BMP180;10528;52.124;5.196;2022-08-03T08:38:19;101487.00;;;34.40
20736;BMP180;10528;52.124;5.196;2022-08-03T08:40:48;101483.00;;;34.40
20736;BMP180;10528;52.124;5.196;2022-08-03T08:43:15;101485.00;;;34.50
20736;BMP180;10528;52.124;5.196;2022-08-03T08:45:43;101489.00;;;34.40
20736;BMP180;10528;52.124;5.196;2022-08-03T08:48:12;101484.00;;;34.10
20736;BMP180;10528;52.124;5.196;2022-08-03T08:50:40;101489.00;;;34.10
20736;BMP180;10528;52.124;5.196;2022-08-03T08:53:09;101482.00;;;34.00
20736;BMP180;10528;52.124;5.196;2022-08-03T08:55:46;101488.00;;;34.00
20736;BMP180;10528;52.124;5.196;2022-08-03T08:58:33;101486.00;;;33.60
20736;BMP180;10528;52.124;5.196;2022-08-03T09:01:00;101486.00;;;33.60
20736;BMP180;10528;52.124;5.196;2022-08-03T09:03:27;101492.00;;;33.70
20736;BMP180;10528;52.124;5.196;2022-08-03T09:05:59;101478.00;;;33.70
20736;BMP180;10528;52.124;5.196;2022-08-03T09:08:29;101479.00;;;33.60
20736;BMP180;10528;52.124;5.196;2022-08-03T09:10:57;101480.00;;;33.60
20736;BMP180;10528;52.124;5.196;2022-08-03T09:13:24;101485.00;;;33.60
20736;BMP180;10528;52.124;5.196;2022-08-03T09:16:15;101482.00;;;33.50
20736;BMP180;10528;52.124;5.196;2022-08-03T09:18:47;101482.00;;;33.50
20736;BMP180;10528;52.124;5.196;2022-08-03T09:21:27;101485.00;;;33.40
20736;BMP180;10528;52.124;5.196;2022-08-03T09:24:02;101483.00;;;33.40
20736;BMP180;10528;52.124;5.196;2022-08-03T09:26:35;101485.00;;;33.30
20736;BMP180;10528;52.124;5.196;2022-08-03T09:29:09;101482.00;;;33.30
20736;BMP180;10528;52.124;5.196;2022-08-03T09:31:45;101481.00;;;33.30
20736;BMP180;10528;52.124;5.196;2022-08-03T09:34:16;101484.00;;;33.30
20736;BMP180;10528;52.124;5.196;2022-08-03T09:36:49;101482.00;;;33.20
20736;BMP180;10528;52.124;5.196;2022-08-03T09:39:25;101476.00;;;33.20
20736;BMP180;10528;52.124;5.196;2022-08-03T09:42:16;101486.00;;;33.20
20736;BMP180;10528;52.124;5.196;2022-08-03T09:44:49;101486.00;;;33.10
20736;BMP180;10528;52.124;5.196;2022-08-03T09:47:37;101485.00;;;33.10
20736;BMP180;10528;52.124;5.196;2022-08-03T09:50:11;101486.00;;;33.20
20736;BMP180;10528;52.124;5.196;2022-08-03T09:52:40;101484.00;;;33.10
20736;BMP180;10528;52.124;5.196;2022-08-03T09:55:18;101492.00;;;33.20
20736;BMP180;10528;52.124;5.196;2022-08-03T09:58:10;101486.00;;;33.20
20736;BMP180;10528;52.124;5.196;2022-08-03T10:01:03;101493.00;;;33.20
20736;BMP180;10528;52.124;5.196;2022-08-03T10:03:34;101488.00;;;33.20
20736;BMP180;10528;52.124;5.196;2022-08-03T10:06:21;101485.00;;;33.30
20736;BMP180;10528;52.124;5.196;2022-08-03T10:09:12;101484.00;;;33.30
20736;BMP180;10528;52.124;5.196;2022-08-03T10:11:42;101479.00;;;33.30
20736;BMP180;10528;52.124;5.196;2022-08-03T10:14:11;101485.00;;;33.40
20736;BMP180;10528;52.124;5.196;2022-08-03T10:16:46;101486.00;;;33.30
20736;BMP180;10528;52.124;5.196;2022-08-03T10:19:14;101482.00;;;33.40
20736;BMP180;10528;52.124;5.196;2022-08-03T10:21:54;101490.00;;;33.20
20736;BMP180;10528;52.124;5.196;2022-08-03T10:24:27;101484.00;;;33.30
20736;BMP180;10528;52.124;5.196;2022-08-03T10:27:05;101481.00;;;33.40
20736;BMP180;10528;52.124;5.196;2022-08-03T10:29:47;101489.00;;;33.30
20736;BMP180;10528;52.124;5.196;2022-08-03T10:33:36;101482.00;;;33.30
20736;BMP180;10528;52.124;5.196;2022-08-03T10:36:06;101476.00;;;33.20
20736;BMP180;10528;52.124;5.196;2022-08-03T10:38:47;101479.00;;;33.30
20736;BMP180;10528;52.124;5.196;2022-08-03T10:41:25;101476.00;;;33.40
20736;BMP180;10528;52.124;5.196;2022-08-03T10:44:18;101471.00;;;33.50
20736;BMP180;10528;52.124;5.196;2022-08-03T10:46:49;101473.00;;;33.60
20736;BMP180;10528;52.124;5.196;2022-08-03T10:49:20;101476.00;;;33.60
20736;BMP180;10528;52.124;5.196;2022-08-03T10:52:03;101469.00;;;33.60
20736;BMP180;10528;52.124;5.196;2022-08-03T10:54:44;101458.00;;;33.60
20736;BMP180;10528;52.124;5.196;2022-08-03T10:57:53;101453.00;;;33.60
20736;BMP180;10528;52.124;5.196;2022-08-03T11:00:26;101456.00;;;33.70
20736;BMP180;10528;52.124;5.196;2022-08-03T11:03:05;101454.00;;;33.60
20736;BMP180;10528;52.124;5.196;2022-08-03T11:05:41;101451.00;;;33.70
20736;BMP180;10528;52.124;5.196;2022-08-03T11:08:32;101460.00;;;33.70
20736;BMP180;10528;52.124;5.196;2022-08-03T11:14:19;101458.00;;;33.80
20736;BMP180;10528;52.124;5.196;2022-08-03T11:17:06;101453.00;;;33.80
20736;BMP180;10528;52.124;5.196;2022-08-03T11:19:51;101453.00;;;33.80
20736;BMP180;10528;52.124;5.196;2022-08-03T11:22:24;101463.00;;;33.90
20736;BMP180;10528;52.124;5.196;2022-08-03T11:27:37;101448.00;;;33.90
20736;BMP180;10528;52.124;5.196;2022-08-03T11:30:14;101452.00;;;34.00
20736;BMP180;10528;52.124;5.196;2022-08-03T11:32:57;101462.00;;;33.90
20736;BMP180;10528;52.124;5.196;2022-08-03T11:35:32;101463.00;;;34.00
20736;BMP180;10528;52.124;5.196;2022-08-03T11:38:04;101465.00;;;34.10
20736;BMP180;10528;52.124;5.196;2022-08-03T11:40:48;101463.00;;;34.10
20736;BMP180;10528;52.124;5.196;2022-08-03T11:46:11;101460.00;;;34.10
20736;BMP180;10528;52.124;5.196;2022-08-03T11:49:05;101451.00;;;34.20
20736;BMP180;10528;52.124;5.196;2022-08-03T11:51:37;101464.00;;;34.20
20736;BMP180;10528;52.124;5.196;2022-08-03T11:54:06;101462.00;;;34.30
20736;BMP180;10528;52.124;5.196;2022-08-03T11:56:48;101455.00;;;34.30
20736;BMP180;10528;52.124;5.196;2022-08-03T11:59:16;101461.00;;;34.30
20736;BMP180;10528;52.124;5.196;2022-08-03T12:01:49;101457.00;;;34.30
20736;BMP180;10528;52.124;5.196;2022-08-03T12:04:16;101466.00;;;34.40
20736;BMP180;10528;52.124;5.196;2022-08-03T12:06:59;101460.00;;;34.40
20736;BMP180;10528;52.124;5.196;2022-08-03T12:09:26;101462.00;;;34.40
20736;BMP180;10528;52.124;5.196;2022-08-03T12:11:52;101473.00;;;34.40
20736;BMP180;10528;52.124;5.196;2022-08-03T12:14:28;101473.00;;;34.50
20736;BMP180;10528;52.124;5.196;2022-08-03T12:17:17;101469.00;;;34.50
20736;BMP180;10528;52.124;5.196;2022-08-03T12:19:45;101471.00;;;34.50
20736;BMP180;10528;52.124;5.196;2022-08-03T12:22:12;101461.00;;;34.50
20736;BMP180;10528;52.124;5.196;2022-08-03T12:24:44;101456.00;;;34.50
20736;BMP180;10528;52.124;5.196;2022-08-03T12:27:23;101456.00;;;34.50
20736;BMP180;10528;52.124;5.196;2022-08-03T12:29:55;101466.00;;;34.50
20736;BMP180;10528;52.124;5.196;2022-08-03T12:32:27;101467.00;;;34.60
20736;BMP180;10528;52.124;5.196;2022-08-03T12:34:56;101463.00;;;34.60
20736;BMP180;10528;52.124;5.196;2022-08-03T12:37:28;101467.00;;;34.60
20736;BMP180;10528;52.124;5.196;2022-08-03T12:39:59;101466.00;;;34.60
20736;BMP180;10528;52.124;5.196;2022-08-03T12:42:38;101461.00;;;34.60
20736;BMP180;10528;52.124;5.196;2022-08-03T12:45:25;101460.00;;;34.60
20736;BMP180;10528;52.124;5.196;2022-08-03T12:47:56;101462.00;;;34.60
20736;BMP180;10528;52.124;5.196;2022-08-03T12:50:29;101472.00;;;34.60
20736;BMP180;10528;52.124;5.196;2022-08-03T12:52:59;101461.00;;;34.70
20736;BMP180;10528;52.124;5.196;2022-08-03T12:55:27;101467.00;;;34.70
20736;BMP180;10528;52.124;5.196;2022-08-03T12:58:49;101469.00;;;34.60
20736;BMP180;10528;52.124;5.196;2022-08-03T13:01:16;101458.00;;;34.70
20736;BMP180;10528;52.124;5.196;2022-08-03T13:03:47;101460.00;;;34.70
20736;BMP180;10528;52.124;5.196;2022-08-03T13:06:23;101457.00;;;34.70
20736;BMP180;10528;52.124;5.196;2022-08-03T13:09:05;101446.00;;;34.70
20736;BMP180;10528;52.124;5.196;2022-08-03T13:11:33;101448.00;;;34.70
20736;BMP180;10528;52.124;5.196;2022-08-03T13:14:20;101455.00;;;34.70
20736;BMP180;10528;52.124;5.196;2022-08-03T13:16:48;101447.00;;;34.80
20736;BMP180;10528;52.124;5.196;2022-08-03T13:19:15;101453.00;;;34.80
20736;BMP180;10528;52.124;5.196;2022-08-03T13:21:43;101447.00;;;34.80
20736;BMP180;10528;52.124;5.196;2022-08-03T13:24:29;101438.00;;;34.80
20736;BMP180;10528;52.124;5.196;2022-08-03T13:26:58;101458.00;;;34.80
20736;BMP180;10528;52.124;5.196;2022-08-03T13:29:25;101458.00;;;34.80
20736;BMP180;10528;52.124;5.196;2022-08-03T13:31:52;101448.00;;;34.80
20736;BMP180;10528;52.124;5.196;2022-08-03T13:34:19;101451.00;;;34.80
20736;BMP180;10528;52.124;5.196;2022-08-03T13:36:51;101439.00;;;34.80
20736;BMP180;10528;52.124;5.196;2022-08-03T13:39:35;101449.00;;;34.80
20736;BMP180;10528;52.124;5.196;2022-08-03T13:42:22;101442.00;;;34.80
20736;BMP180;10528;52.124;5.196;2022-08-03T13:44:49;101447.00;;;34.90
20736;BMP180;10528;52.124;5.196;2022-08-03T13:47:16;101449.00;;;34.90
20736;BMP180;10528;52.124;5.196;2022-08-03T13:49:44;101442.00;;;34.90
20736;BMP180;10528;52.124;5.196;2022-08-03T13:52:30;101449.00;;;34.90
20736;BMP180;10528;52.124;5.196;2022-08-03T13:54:57;101457.00;;;34.90
20736;BMP180;10528;52.124;5.196;2022-08-03T13:57:25;101452.00;;;34.90
20736;BMP180;10528;52.124;5.196;2022-08-03T14:00:13;101446.00;;;34.90
20736;BMP180;10528;52.124;5.196;2022-08-03T14:02:56;101452.00;;;34.90
20736;BMP180;10528;52.124;5.196;2022-08-03T14:05:30;101457.00;;;34.90
20736;BMP180;10528;52.124;5.196;2022-08-03T14:07:59;101441.00;;;34.90
20736;BMP180;10528;52.124;5.196;2022-08-03T14:10:41;101453.00;;;34.90
20736;BMP180;10528;52.124;5.196;2022-08-03T14:13:11;101450.00;;;34.90
20736;BMP180;10528;52.124;5.196;2022-08-03T14:15:47;101446.00;;;34.90
20736;BMP180;10528;52.124;5.196;2022-08-03T14:18:16;101433.00;;;34.90
20736;BMP180;10528;52.124;5.196;2022-08-03T14:20:56;101438.00;;;34.90
20736;BMP180;10528;52.124;5.196;2022-08-03T14:23:32;101432.00;;;34.90
20736;BMP180;10528;52.124;5.196;2022-08-03T14:25:59;101431.00;;;34.90
20736;BMP180;10528;52.124;5.196;2022-08-03T14:28:26;101424.00;;;34.80
20736;BMP180;10528;52.124;5.196;2022-08-03T14:30:54;101428.00;;;34.80
20736;BMP180;10528;52.124;5.196;2022-08-03T14:33:24;101423.00;;;34.80
20736;BMP180;10528;52.124;5.196;2022-08-03T14:35:54;101417.00;;;34.80
20736;BMP180;10528;52.124;5.196;2022-08-03T14:38:21;101428.00;;;34.80
20736;BMP180;10528;52.124;5.196;2022-08-03T14:40:49;101419.00;;;34.80
20736;BMP180;10528;52.124;5.196;2022-08-03T14:43:16;101420.00;;;34.80
20736;BMP180;10528;52.124;5.196;2022-08-03T14:45:43;101424.00;;;34.80